Time;durP1;ratioP1;P1;durP2;ratioP2;P2;SDS_P1;SDS_P2;PMS_P1;PMS_P2;Temp;Humidity;BMP_temperature;BMP_pressure;BME280_temperature;BME280_humidity;BME280_pressure;Samples;Min_cycle;Max_cycle;Signal;HPM_P1;HPM_P2
2023/03/22 00:02:18;;;;;;;48.60;27.90;;;;;;;4.40;78.21;100067.44;103557;1250;106553;-71
2023/03/22 00:04:45;;;;;;;41.30;26.10;;;;;;;4.43;78.38;100069.64;103464;1253;97682;-71
2023/03/22 00:07:13;;;;;;;40.60;24.50;;;;;;;4.47;78.45;100066.50;103382;1250;138074;-71
2023/03/22 00:09:43;;;;;;;41.10;25.80;;;;;;;4.49;78.31;100058.05;104426;1253;97656;-71
2023/03/22 00:12:10;;;;;;;47.40;27.90;;;;;;;4.52;78.26;100053.55;103670;1250;138282;-71
2023/03/22 00:14:38;;;;;;;47.20;29.10;;;;;;;4.53;78.22;100050.27;103470;1251;109311;-70
2023/03/22 00:17:05;;;;;;;49.50;27.70;;;;;;;4.55;78.14;100044.91;103436;1253;138604;-70
2023/03/22 00:19:36;;;;;;;43.50;28.10;;;;;;;4.56;78.15;100047.14;103495;1253;108024;-72
2023/03/22 00:22:05;;;;;;;48.00;27.20;;;;;;;4.52;78.06;100042.02;103556;1250;97794;-71
2023/03/22 00:24:32;;;;;;;43.60;27.00;;;;;;;4.47;78.02;100042.56;104408;1250;138469;-71
2023/03/22 00:27:00;;;;;;;45.40;25.10;;;;;;;4.43;78.13;100042.09;104215;1250;107663;-71
2023/03/22 00:29:27;;;;;;;40.00;25.20;;;;;;;4.43;78.36;100040.02;103344;1249;139073;-71
2023/03/22 00:31:55;;;;;;;41.50;25.20;;;;;;;4.46;78.54;100040.51;103496;1250;107845;-70
2023/03/22 00:34:23;;;;;;;42.40;24.60;;;;;;;4.50;78.59;100041.35;103545;1250;97796;-71
2023/03/22 00:36:55;;;;;;;39.70;25.30;;;;;;;4.52;78.46;100034.79;103470;1253;138445;-71
2023/03/22 00:39:22;;;;;;;39.90;24.00;;;;;;;4.54;78.62;100039.92;103816;1255;107770;-71
2023/03/22 00:41:52;;;;;;;36.90;23.70;;;;;;;4.56;78.89;100040.08;103507;1249;138631;-71
2023/03/22 00:44:19;;;;;;;35.90;22.80;;;;;;;4.58;78.76;100046.08;104724;1250;107827;-71
2023/03/22 00:46:56;;;;;;;38.70;24.10;;;;;;;4.58;78.99;100041.24;103450;1249;138833;-71
2023/03/22 00:49:24;;;;;;;38.30;22.90;;;;;;;4.57;79.13;100039.55;103573;1250;111221;-71
2023/03/22 00:51:51;;;;;;;38.60;22.70;;;;;;;4.55;78.93;100033.20;103447;1249;108229;-70
2023/03/22 00:54:19;;;;;;;39.50;24.80;;;;;;;4.55;78.99;100030.96;103462;1253;138867;-70
2023/03/22 00:56:49;;;;;;;40.80;24.50;;;;;;;4.56;79.32;100028.88;103896;1250;108831;-70
2023/03/22 00:59:17;;;;;;;40.50;24.70;;;;;;;4.55;79.08;100024.59;103327;1250;139003;-70
2023/03/22 01:01:45;;;;;;;40.00;23.90;;;;;;;4.55;79.10;100019.25;103841;1250;111473;-70
2023/03/22 01:04:16;;;;;;;37.70;24.50;;;;;;;4.54;79.15;100010.65;103592;1253;109845;-70
2023/03/22 01:06:45;;;;;;;42.30;26.40;;;;;;;4.53;78.85;100012.40;103900;1250;137933;-71
2023/03/22 01:09:13;;;;;;;44.00;26.70;;;;;;;4.49;78.75;100015.35;104834;1250;109269;-71
2023/03/22 01:11:41;;;;;;;44.70;27.60;;;;;;;4.47;78.92;100016.74;104237;1250;586390;-71
2023/03/22 01:14:09;;;;;;;44.20;26.50;;;;;;;4.43;78.96;100013.70;103556;1253;113142;-71
2023/03/22 01:16:36;;;;;;;42.70;25.40;;;;;;;4.37;78.95;100014.63;103561;1253;105647;-70
2023/03/22 01:19:26;;;;;;;43.20;26.00;;;;;;;4.32;79.14;100016.75;104045;1250;97775;-71
2023/03/22 01:21:56;;;;;;;44.80;26.50;;;;;;;4.29;78.97;100014.00;103816;1251;108907;-70
2023/03/22 01:24:24;;;;;;;44.80;25.90;;;;;;;4.27;79.20;100010.60;103781;1253;138667;-70
2023/03/22 01:26:51;;;;;;;38.20;24.10;;;;;;;4.25;79.35;100010.61;103422;1249;111476;-71
2023/03/22 01:29:19;;;;;;;40.50;25.30;;;;;;;4.24;79.12;100009.92;103436;1250;139200;-70
2023/03/22 01:31:46;;;;;;;41.20;26.30;;;;;;;4.22;79.02;100006.52;103582;1250;97786;-70
2023/03/22 01:34:16;;;;;;;42.10;26.10;;;;;;;4.17;79.35;100006.77;103502;1251;108181;-70
2023/03/22 01:36:49;;;;;;;42.20;26.20;;;;;;;4.13;79.33;100008.84;103636;1250;138009;-71
2023/03/22 01:39:19;;;;;;;44.30;27.30;;;;;;;4.10;79.64;100004.22;103565;1250;111356;-71
2023/03/22 01:41:52;;;;;;;50.90;29.50;;;;;;;4.05;79.83;100000.48;103379;1250;137868;-71
2023/03/22 01:44:21;;;;;;;46.20;27.50;;;;;;;4.03;79.98;99999.47;104433;1250;98322;-70
2023/03/22 01:46:51;;;;;;;46.30;27.80;;;;;;;4.01;80.14;99998.48;103504;1250;107697;-71
2023/03/22 01:49:26;;;;;;;47.80;27.60;;;;;;;3.95;80.22;99991.82;103479;1256;97801;-70
2023/03/22 01:52:00;;;;;;;44.90;28.50;;;;;;;3.90;80.23;99990.48;103580;1253;111421;-71
2023/03/22 01:54:54;;;;;;;48.60;29.40;;;;;;;3.86;80.43;99987.08;103389;1250;138508;-70
2023/03/22 01:57:38;;;;;;;43.10;27.20;;;;;;;3.82;80.34;99985.05;103545;1253;98790;-71
2023/03/22 02:00:12;;;;;;;49.50;29.10;;;;;;;3.78;80.61;99980.11;103487;1250;138285;-71
2023/03/22 02:02:42;;;;;;;48.60;29.70;;;;;;;3.74;80.75;99983.05;104230;1255;95994;-71
2023/03/22 02:05:30;;;;;;;50.90;29.70;;;;;;;3.71;80.90;99982.56;103378;1250;138455;-70
2023/03/22 02:08:00;;;;;;;47.00;28.80;;;;;;;3.70;81.20;99977.42;104441;1250;108383;-71
2023/03/22 02:10:31;;;;;;;49.80;30.20;;;;;;;3.69;81.43;99979.15;104083;1249;98370;-71
2023/03/22 02:13:22;;;;;;;49.30;30.30;;;;;;;3.68;81.47;99974.52;103387;1247;138396;-71
2023/03/22 02:16:16;;;;;;;49.80;30.50;;;;;;;3.64;81.54;99975.07;103458;1251;97826;-71
2023/03/22 02:19:22;;;;;;;51.40;32.20;;;;;;;3.61;81.90;99973.55;103430;1253;138176;-72
2023/03/22 02:22:37;;;;;;;51.60;31.20;;;;;;;3.60;81.75;99974.77;103440;1250;107703;-70
2023/03/22 02:25:33;;;;;;;54.50;33.50;;;;;;;3.57;81.96;99967.70;103438;1258;139199;-70
2023/03/22 02:28:25;;;;;;;49.80;31.40;;;;;;;3.55;81.99;99968.94;103449;1257;107451;-70
2023/03/22 02:31:16;;;;;;;55.30;32.40;;;;;;;3.52;82.42;99966.90;102832;1257;138396;-71
2023/03/22 02:34:26;;;;;;;56.40;32.80;;;;;;;3.49;82.34;99968.31;103051;1257;111539;-70
2023/03/22 02:37:19;;;;;;;55.80;33.20;;;;;;;3.44;82.53;99965.10;102760;1261;138657;-70
2023/03/22 02:39:53;;;;;;;55.20;32.80;;;;;;;3.41;82.67;99963.05;103016;1259;97919;-70
2023/03/22 02:42:43;;;;;;;60.10;35.10;;;;;;;3.39;82.70;99964.77;102962;1258;138205;-71
2023/03/22 02:45:38;;;;;;;58.60;35.00;;;;;;;3.36;82.87;99963.42;102976;1261;98700;-71
2023/03/22 02:48:15;;;;;;;55.20;35.30;;;;;;;3.33;82.93;99963.95;102940;1261;138148;-71
2023/03/22 02:50:53;;;;;;;59.60;35.60;;;;;;;3.31;83.05;99961.23;102935;1256;107856;-70
2023/03/22 02:53:46;;;;;;;57.20;35.90;;;;;;;3.28;83.41;99956.27;102905;1260;138748;-70
2023/03/22 02:56:19;;;;;;;57.70;36.10;;;;;;;3.24;83.54;99952.34;102857;1259;107707;-71
2023/03/22 02:59:10;;;;;;;61.10;36.50;;;;;;;3.20;83.76;99947.55;102906;1257;139008;-70
2023/03/22 03:01:42;;;;;;;60.60;36.90;;;;;;;3.17;83.92;99945.52;102932;1259;110799;-71
2023/03/22 03:04:15;;;;;;;58.60;35.70;;;;;;;3.14;83.96;99942.80;103478;1251;108005;-71
2023/03/22 03:06:46;;;;;;;59.20;34.90;;;;;;;3.10;83.99;99941.63;103404;1250;138331;-71
2023/03/22 03:09:16;;;;;;;61.10;35.40;;;;;;;3.08;84.47;99940.27;103356;1252;108562;-70
2023/03/22 03:11:44;;;;;;;55.40;33.80;;;;;;;3.05;84.98;99939.92;103320;1256;138351;-71
2023/03/22 03:14:24;;;;;;;57.60;34.50;;;;;;;3.05;85.10;99937.17;103585;1251;110743;-71
2023/03/22 03:17:11;;;;;;;55.70;34.00;;;;;;;3.04;85.54;99940.78;103500;1253;109258;-71
2023/03/22 03:19:52;;;;;;;50.80;31.10;;;;;;;3.04;85.50;99943.88;103617;1250;97761;-71
2023/03/22 03:22:36;;;;;;;52.00;31.10;;;;;;;3.06;85.94;99943.37;103776;1250;107906;-71
2023/03/22 03:25:22;;;;;;;51.10;30.20;;;;;;;3.10;86.22;99943.88;103429;1253;138599;-71
2023/03/22 03:28:03;;;;;;;52.40;32.10;;;;;;;3.11;86.08;99939.04;103576;1252;111036;-71
2023/03/22 03:30:37;;;;;;;53.70;32.90;;;;;;;3.13;85.80;99935.92;103373;1253;138379;-72
2023/03/22 03:33:09;;;;;;;51.80;32.20;;;;;;;3.17;85.62;99936.42;103556;1251;97890;-70
2023/03/22 03:36:02;;;;;;;53.70;31.10;;;;;;;3.19;85.68;99933.82;103421;1253;138096;-72
2023/03/22 03:38:35;;;;;;;55.10;32.10;;;;;;;3.20;85.54;99936.55;103534;1249;97770;-70
2023/03/22 03:41:05;;;;;;;54.30;32.20;;;;;;;3.20;85.37;99933.30;103572;1253;112017;-70
2023/03/22 03:43:34;;;;;;;57.00;32.90;;;;;;;3.20;85.63;99930.55;103489;1253;108775;-71
2023/03/22 03:46:02;;;;;;;50.10;30.40;;;;;;;3.18;85.62;99926.61;103594;1253;97863;-71
2023/03/22 03:48:31;;;;;;;51.40;32.30;;;;;;;3.18;86.12;99927.98;103400;1255;138058;-72
2023/03/22 03:51:01;;;;;;;53.40;31.50;;;;;;;3.17;85.98;99931.09;103490;1250;97861;-70
2023/03/22 03:53:39;;;;;;;49.10;30.90;;;;;;;3.12;86.92;99931.65;103383;1250;138366;-70
2023/03/22 03:56:08;;;;;;;49.00;29.90;;;;;;;3.11;87.16;99928.91;103546;1250;107161;-70
2023/03/22 03:58:39;;;;;;;51.60;30.10;;;;;;;3.12;87.07;99931.64;103660;1254;97698;-71
2023/03/22 04:01:10;;;;;;;47.80;27.50;;;;;;;3.15;86.78;99930.59;103363;1256;138268;-70
2023/03/22 04:03:56;;;;;;;42.40;25.60;;;;;;;3.14;86.82;99930.42;103520;1250;97806;-70
2023/03/22 04:06:58;;;;;;;44.80;27.90;;;;;;;3.14;86.89;99934.20;102942;1261;138108;-69
2023/03/22 04:09:28;;;;;;;45.80;29.00;;;;;;;3.13;86.63;99930.27;103006;1256;107694;-70
2023/03/22 04:12:00;;;;;;;44.50;29.50;;;;;;;3.12;86.38;99937.48;102944;1255;138324;-69
2023/03/22 04:14:28;;;;;;;45.50;29.00;;;;;;;3.10;86.55;99933.39;103031;1262;107564;-70
2023/03/22 04:16:57;;;;;;;43.90;28.50;;;;;;;3.07;86.51;99931.70;102822;1260;97817;-70
2023/03/22 04:19:25;;;;;;;49.20;29.20;;;;;;;3.03;86.86;99932.38;102918;1256;138224;-70
2023/03/22 04:21:53;;;;;;;49.30;29.90;;;;;;;2.98;86.90;99934.65;103055;1262;109605;-70
2023/03/22 04:24:29;;;;;;;49.00;31.10;;;;;;;2.93;86.54;99927.31;102784;1260;139324;-70
2023/03/22 04:26:57;;;;;;;53.20;33.80;;;;;;;2.88;86.58;99921.33;103073;1260;107761;-70
2023/03/22 04:29:35;;;;;;;53.70;31.90;;;;;;;2.82;86.59;99921.18;102877;1262;138656;-70
2023/03/22 04:32:25;;;;;;;56.10;30.80;;;;;;;2.77;87.11;99921.05;102761;1256;111291;-70
2023/03/22 04:34:54;;;;;;;49.80;31.10;;;;;;;2.73;86.94;99926.22;102922;1258;105677;-71
2023/03/22 04:37:43;;;;;;;46.80;28.80;;;;;;;2.69;87.16;99930.53;103043;1256;97857;-70
2023/03/22 04:40:19;;;;;;;49.60;29.30;;;;;;;2.67;87.38;99931.21;103103;1256;107180;-70
2023/03/22 04:42:56;;;;;;;47.10;29.50;;;;;;;2.68;87.39;99931.04;103064;1250;138607;-70
2023/03/22 04:45:47;;;;;;;47.50;30.10;;;;;;;2.70;87.05;99928.48;103457;1253;111480;-71
2023/03/22 04:48:20;;;;;;;50.80;29.50;;;;;;;2.74;86.94;99933.77;103395;1253;138276;-71
2023/03/22 04:50:52;;;;;;;47.40;29.70;;;;;;;2.77;86.74;99930.48;103468;1251;97780;-71
2023/03/22 04:53:26;;;;;;;50.30;31.50;;;;;;;2.81;86.70;99929.60;103428;1251;138105;-70
2023/03/22 04:55:56;;;;;;;45.50;29.20;;;;;;;2.83;86.38;99932.50;103482;1256;97805;-70
2023/03/22 04:58:44;;;;;;;51.90;32.20;;;;;;;2.87;86.25;99928.20;103515;1253;112121;-71
2023/03/22 05:01:14;;;;;;;48.80;31.60;;;;;;;2.91;86.05;99929.21;103319;1250;137975;-71
2023/03/22 05:03:47;;;;;;;45.60;31.10;;;;;;;2.96;85.84;99928.66;103549;1250;98525;-71
2023/03/22 05:06:16;;;;;;;48.90;30.30;;;;;;;3.04;85.84;99932.38;103311;1250;138388;-71
2023/03/22 05:09:02;;;;;;;42.40;29.50;;;;;;;3.17;85.42;99935.38;103464;1249;97742;-71
2023/03/22 05:11:32;;;;;;;41.40;27.60;;;;;;;3.32;85.13;99929.60;103445;1249;139042;-71
2023/03/22 05:14:29;;;;;;;41.80;28.10;;;;;;;3.62;84.43;99932.95;103484;1251;107162;-72
2023/03/22 05:16:57;;;;;;;35.70;23.90;;;;;;;3.95;83.79;99932.98;103395;1254;99031;-71
2023/03/22 05:19:25;;;;;;;39.50;27.40;;;;;;;4.35;82.60;99932.03;103351;1251;137972;-71
2023/03/22 05:22:00;;;;;;;36.20;25.00;;;;;;;4.87;81.20;99930.99;103500;1250;97777;-71
2023/03/22 05:24:46;;;;;;;34.80;24.70;;;;;;;5.83;78.83;99928.11;103845;1253;138133;-71
2023/03/22 05:27:29;;;;;;;35.50;25.50;;;;;;;6.81;76.76;99923.73;103367;1254;107656;-72
2023/03/22 05:30:18;;;;;;;36.60;25.60;;;;;;;8.13;74.66;99924.45;103281;1255;138379;-71
2023/03/22 05:32:50;;;;;;;32.50;23.30;;;;;;;9.17;71.67;99921.06;103518;1250;107196;-71
2023/03/22 05:35:17;;;;;;;34.50;23.70;;;;;;;10.07;69.89;99920.66;103409;1253;138439;-72
2023/03/22 05:37:50;;;;;;;33.50;24.50;;;;;;;11.28;66.69;99916.80;103504;1251;112326;-73
2023/03/22 05:40:20;;;;;;;27.40;21.30;;;;;;;12.54;64.17;99911.23;103511;1253;107849;-71
2023/03/22 05:42:48;;;;;;;27.20;20.70;;;;;;;13.68;60.83;99915.23;103433;1250;138197;-75
2023/03/22 05:45:20;;;;;;;29.50;21.10;;;;;;;14.57;59.01;99907.46;103564;1253;106680;-75
2023/03/22 05:47:54;;;;;;;29.00;21.70;;;;;;;15.41;56.24;99910.16;103333;1251;138060;-72
2023/03/22 05:50:23;;;;;;;28.70;21.00;;;;;;;16.05;54.60;99905.88;103532;1253;111241;-72
2023/03/22 05:52:51;;;;;;;23.90;19.80;;;;;;;16.57;52.96;99900.95;103463;1253;107824;-73
2023/03/22 05:55:31;;;;;;;24.30;20.70;;;;;;;16.99;51.71;99898.80;103382;1256;137971;-73
2023/03/22 05:58:01;;;;;;;28.10;20.30;;;;;;;17.10;49.41;99899.71;103501;1250;107347;-73
2023/03/22 06:00:30;;;;;;;22.70;20.30;;;;;;;16.63;47.76;99906.17;103336;1251;138250;-72
2023/03/22 06:03:15;;;;;;;;;;;;;;;16.01;47.64;99909.81;103521;1253;110219;-73
2023/03/22 06:05:49;;;;;;;24.60;18.90;;;;;;;15.83;47.78;99911.26;103374;1251;124639;-64
2023/03/22 06:08:17;;;;;;;23.70;18.30;;;;;;;16.15;47.72;99911.23;104088;1253;97793;-64
2023/03/22 06:10:44;;;;;;;21.40;18.20;;;;;;;16.41;47.27;99913.67;103500;1251;108665;-69
2023/03/22 06:13:12;;;;;;;22.20;18.20;;;;;;;16.58;46.94;99912.61;103417;1251;137938;-72
2023/03/22 06:15:39;;;;;;;23.80;18.30;;;;;;;16.82;45.91;99909.52;103506;1250;111196;-73
2023/03/22 06:18:09;;;;;;;23.50;17.90;;;;;;;16.88;45.02;99909.88;103437;1253;138568;-71
2023/03/22 06:20:42;;;;;;;20.00;16.80;;;;;;;16.94;44.17;99902.32;103504;1256;97825;-72
2023/03/22 06:23:14;;;;;;;22.00;17.60;;;;;;;16.85;44.68;99902.11;103383;1251;138922;-72
2023/03/22 06:25:43;;;;;;;21.70;17.60;;;;;;;16.98;44.88;99907.16;103478;1251;97797;-75
2023/03/22 06:28:10;;;;;;;20.10;16.90;;;;;;;17.12;44.64;99899.55;103493;1254;112096;-64
2023/03/22 06:30:39;;;;;;;21.00;16.30;;;;;;;17.18;44.53;99902.84;103423;1253;138182;-63
2023/03/22 06:33:26;;;;;;;20.40;16.50;;;;;;;16.28;43.39;99901.85;103509;1253;97646;-63
2023/03/22 06:36:12;;;;;;;;;;;;;;;14.51;44.74;99909.34;103404;1250;137791;-72
2023/03/22 06:39:05;;;;;;;24.30;17.70;;;;;;;12.84;47.69;99910.20;103446;1253;97865;-73
2023/03/22 06:41:32;;;;;;;24.80;18.10;;;;;;;11.80;49.94;99917.27;103393;1251;139535;-73
2023/03/22 06:44:00;;;;;;;22.10;17.70;;;;;;;11.00;51.89;99920.54;103498;1251;107697;-72
2023/03/22 06:46:45;;;;;;;23.30;17.60;;;;;;;10.37;53.70;99915.79;103596;1253;98312;-72
2023/03/22 06:49:21;;;;;;;25.50;17.70;;;;;;;10.09;55.18;99912.45;103345;1254;138200;-70
2023/03/22 06:51:52;;;;;;;22.90;16.80;;;;;;;9.76;56.37;99916.19;103428;1254;97787;-72
2023/03/22 06:54:20;;;;;;;26.40;17.80;;;;;;;9.53;57.33;99907.25;103342;1253;137839;-71
2023/03/22 06:56:47;;;;;;;23.50;17.80;;;;;;;9.69;58.04;99908.96;103407;1254;107451;-73
2023/03/22 06:59:15;;;;;;;23.20;17.90;;;;;;;9.94;58.00;99909.85;103377;1250;138118;-72
2023/03/22 07:01:42;;;;;;;23.30;16.40;;;;;;;9.77;58.10;99908.50;103382;1253;107083;-71
2023/03/22 07:04:10;;;;;;;21.70;15.70;;;;;;;9.45;58.86;99911.17;103446;1255;97938;-78
2023/03/22 07:06:38;;;;;;;22.70;16.90;;;;;;;8.99;59.68;99910.70;103421;1253;137565;-71
2023/03/22 07:09:06;;;;;;;27.70;17.30;;;;;;;8.64;60.71;99904.52;103375;1251;107370;-71
2023/03/22 07:11:34;;;;;;;23.70;17.20;;;;;;;8.40;61.76;99908.50;103239;1250;138667;-67
2023/03/22 07:14:02;;;;;;;23.30;16.70;;;;;;;8.21;62.70;99902.77;103488;1251;108364;-69
2023/03/22 07:16:45;;;;;;;25.00;17.00;;;;;;;8.05;63.81;99904.95;103538;1255;98005;-69
2023/03/22 07:19:12;;;;;;;22.80;16.80;;;;;;;8.01;64.17;99899.52;103323;1256;138165;-67
2023/03/22 07:21:39;;;;;;;25.30;16.70;;;;;;;8.13;64.74;99901.77;103477;1256;108626;-70
2023/03/22 07:24:12;;;;;;;23.90;16.90;;;;;;;8.44;64.63;99899.90;103387;1255;138271;-72
2023/03/22 07:26:50;;;;;;;27.30;16.40;;;;;;;8.60;64.19;99894.38;103363;1254;108887;-71
2023/03/22 07:29:21;;;;;;;28.70;16.90;;;;;;;8.63;64.30;99888.77;103303;1256;138603;-72
2023/03/22 07:31:48;;;;;;;22.90;15.60;;;;;;;8.67;64.31;99884.13;103410;1255;111855;-72
2023/03/22 07:34:22;;;;;;;21.10;15.20;;;;;;;8.79;64.54;99880.83;103287;1253;107884;-72
2023/03/22 07:37:04;;;;;;;20.50;15.30;;;;;;;9.23;63.98;99884.46;103344;1253;138551;-71
2023/03/22 07:39:32;;;;;;;20.70;15.40;;;;;;;10.15;63.01;99884.06;103360;1255;106821;-71
2023/03/22 07:41:59;;;;;;;21.10;14.90;;;;;;;11.42;60.96;99886.83;103318;1251;137975;-72
2023/03/22 07:44:48;;;;;;;19.30;14.70;;;;;;;12.06;59.17;99876.98;103448;1251;110579;-72
2023/03/22 07:47:18;;;;;;;21.90;14.50;;;;;;;12.76;57.97;99876.39;103281;1254;138099;-73
2023/03/22 07:50:12;;;;;;;18.00;14.10;;;;;;;13.98;55.03;99872.10;103289;1251;97793;-74
2023/03/22 07:52:41;;;;;;;18.50;14.50;;;;;;;14.03;53.37;99877.61;103428;1256;107985;-73
2023/03/22 07:55:10;;;;;;;22.10;15.10;;;;;;;13.72;53.51;99873.98;103339;1254;137920;-72
2023/03/22 07:57:39;;;;;;;17.40;13.90;;;;;;;13.38;53.82;99866.27;103315;1250;111467;-72
2023/03/22 08:00:10;;;;;;;21.70;13.90;;;;;;;13.11;54.25;99874.22;103282;1257;138042;-73
2023/03/22 08:02:53;;;;;;;17.40;13.50;;;;;;;13.40;54.51;99864.58;103640;1253;97663;-74
2023/03/22 08:05:41;;;;;;;18.00;13.90;;;;;;;14.35;53.68;99854.27;103363;1251;137998;-73
2023/03/22 08:08:12;;;;;;;19.50;14.30;;;;;;;14.97;51.81;99849.94;103363;1256;97791;-71
2023/03/22 08:10:40;;;;;;;16.30;13.70;;;;;;;15.15;51.60;99850.36;103374;1251;111429;-71
2023/03/22 08:13:09;;;;;;;19.60;14.10;;;;;;;15.35;52.09;99848.96;103318;1262;138250;-71
2023/03/22 08:15:37;;;;;;;17.10;13.40;;;;;;;15.47;50.96;99855.47;103485;1251;97675;-72
2023/03/22 08:18:07;;;;;;;17.40;13.00;;;;;;;15.10;50.28;99856.92;103871;1256;137933;-74
2023/03/22 08:20:38;;;;;;;18.20;14.50;;;;;;;14.67;51.25;99853.42;103429;1253;97797;-75
2023/03/22 08:23:14;;;;;;;22.50;15.40;;;;;;;14.30;52.03;99852.92;103514;1251;111275;-74
2023/03/22 08:26:02;;;;;;;19.60;14.70;;;;;;;13.90;52.97;99849.65;103272;1253;106445;-74
2023/03/22 08:28:29;;;;;;;18.30;14.80;;;;;;;13.51;53.54;99849.19;103374;1254;97915;-73
2023/03/22 08:30:58;;;;;;;20.00;16.10;;;;;;;13.12;54.39;99847.96;103284;1253;137872;-72
2023/03/22 08:33:26;;;;;;;20.20;15.70;;;;;;;12.68;55.21;99844.15;103347;1251;97890;-74
2023/03/22 08:36:03;;;;;;;25.10;15.90;;;;;;;12.24;56.22;99842.02;103414;1250;137785;-73
2023/03/22 08:38:31;;;;;;;21.50;16.10;;;;;;;11.77;57.45;99849.31;103460;1251;107453;-73
2023/03/22 08:40:59;;;;;;;23.40;15.90;;;;;;;11.43;58.57;99848.83;103413;1256;98279;-74
2023/03/22 08:43:27;;;;;;;19.70;15.40;;;;;;;11.21;59.34;99847.65;103282;1254;137580;-74
2023/03/22 08:45:55;;;;;;;23.60;16.20;;;;;;;11.12;60.23;99845.59;103399;1263;97749;-74
2023/03/22 08:48:23;;;;;;;25.20;16.60;;;;;;;11.11;60.41;99853.09;103347;1251;138096;-73
2023/03/22 08:51:05;;;;;;;24.00;16.80;;;;;;;11.10;60.72;99847.57;103511;1253;107285;-73
2023/03/22 08:54:11;;;;;;;23.10;16.90;;;;;;;11.04;61.16;99845.05;102866;1261;138268;-73
2023/03/22 08:57:09;;;;;;;20.10;16.20;;;;;;;10.94;61.44;99858.68;103007;1262;106761;-73
2023/03/22 09:00:05;;;;;;;20.40;15.90;;;;;;;10.80;61.71;99854.21;103126;1250;137947;-74
2023/03/22 09:02:42;;;;;;;23.60;16.30;;;;;;;10.69;62.17;99852.70;103543;1254;111433;-77
2023/03/22 09:05:12;;;;;;;24.30;16.60;;;;;;;10.65;62.55;99847.30;103572;1251;107210;-74
2023/03/22 09:07:40;;;;;;;25.00;18.00;;;;;;;10.62;62.91;99847.40;103523;1262;97771;-73
2023/03/22 09:10:24;;;;;;;24.10;16.70;;;;;;;10.57;63.09;99850.20;103659;1251;108021;-72
2023/03/22 09:12:51;;;;;;;24.00;16.80;;;;;;;10.50;63.44;99849.41;103361;1251;138269;-73
2023/03/22 09:15:19;;;;;;;24.30;17.30;;;;;;;10.44;63.74;99854.37;103365;1253;110598;-71
2023/03/22 09:17:54;;;;;;;25.10;16.90;;;;;;;10.36;63.95;99848.59;103353;1251;139045;-73
2023/03/22 09:20:24;;;;;;;22.50;16.10;;;;;;;10.29;64.13;99846.40;103512;1253;98414;-75
2023/03/22 09:22:51;;;;;;;21.90;15.00;;;;;;;10.27;64.27;99836.41;103366;1256;107637;-75
2023/03/22 09:25:20;;;;;;;21.60;15.70;;;;;;;10.26;64.37;99832.98;103297;1253;138669;-68
2023/03/22 09:27:48;;;;;;;21.20;15.50;;;;;;;10.23;64.47;99829.10;103448;1255;111654;-74
2023/03/22 09:30:16;;;;;;;20.00;14.90;;;;;;;10.19;64.37;99832.66;103329;1253;138556;-75
2023/03/22 09:32:43;;;;;;;23.70;15.10;;;;;;;10.14;64.58;99829.92;103491;1251;97787;-74
2023/03/22 09:35:12;;;;;;;22.70;16.00;;;;;;;10.14;64.82;99824.00;103384;1250;107663;-74
2023/03/22 09:37:52;;;;;;;21.50;15.50;;;;;;;10.17;64.69;99826.68;103445;1251;98073;-72
2023/03/22 09:40:20;;;;;;;21.00;14.80;;;;;;;10.20;64.72;99823.77;104173;1251;110507;-71
2023/03/22 09:42:51;;;;;;;23.00;14.60;;;;;;;10.23;64.61;99820.20;104688;1251;139557;-73
2023/03/22 09:45:23;;;;;;;20.50;15.00;;;;;;;10.26;64.42;99820.63;104035;1251;97960;-72
2023/03/22 09:47:55;;;;;;;23.90;16.40;;;;;;;10.32;64.67;99808.60;103396;1251;138643;-73
2023/03/22 09:50:25;;;;;;;24.20;15.30;;;;;;;10.40;64.93;99806.91;103501;1251;97732;-70
2023/03/22 09:52:53;;;;;;;22.60;16.60;;;;;;;10.47;65.05;99801.24;104040;1253;113830;-69
2023/03/22 09:55:37;;;;;;;19.90;15.30;;;;;;;10.55;65.12;99803.85;104377;1251;138611;-70
2023/03/22 09:58:11;;;;;;;21.20;15.40;;;;;;;10.63;64.94;99802.02;104991;1251;96363;-69
2023/03/22 10:00:45;;;;;;;20.00;15.00;;;;;;;10.73;65.05;99804.39;103952;1251;138632;-69
2023/03/22 10:03:24;;;;;;;18.30;14.40;;;;;;;10.79;64.35;99810.56;104606;1251;96536;-69
2023/03/22 10:05:57;;;;;;;22.60;15.50;;;;;;;10.78;64.11;99810.27;104823;1251;138983;-68
2023/03/22 10:08:41;;;;;;;22.10;14.00;;;;;;;10.77;64.13;99811.35;103693;1251;108085;-67
2023/03/22 10:11:21;;;;;;;21.20;13.80;;;;;;;10.74;63.99;99807.63;103759;1251;95528;-70
2023/03/22 10:13:56;;;;;;;20.30;14.00;;;;;;;10.71;63.94;99810.55;104140;1253;108100;-68
2023/03/22 10:16:29;;;;;;;18.60;14.70;;;;;;;10.64;63.97;99805.79;103667;1248;97793;-70
2023/03/22 10:19:05;;;;;;;20.70;14.40;;;;;;;10.59;64.17;99803.54;103902;1249;138605;-71
2023/03/22 10:21:33;;;;;;;23.00;14.90;;;;;;;10.55;64.25;99803.88;103462;1253;109367;-70
2023/03/22 10:24:07;;;;;;;22.40;14.80;;;;;;;10.51;64.49;99804.90;103463;1254;138755;-69
2023/03/22 10:26:51;;;;;;;21.30;15.90;;;;;;;10.47;64.64;99806.28;103507;1251;107829;-69
2023/03/22 10:29:38;;;;;;;20.50;14.80;;;;;;;10.47;64.92;99801.40;103699;1251;139015;-68
2023/03/22 10:32:26;;;;;;;28.10;15.40;;;;;;;10.54;65.10;99804.41;103708;1253;112398;-70
2023/03/22 10:35:03;;;;;;;24.50;16.30;;;;;;;10.60;65.00;99805.92;103446;1251;108343;-69
2023/03/22 10:37:36;;;;;;;20.90;15.00;;;;;;;10.61;64.87;99801.55;103557;1251;140398;-72
2023/03/22 10:40:07;;;;;;;20.70;15.40;;;;;;;10.61;64.66;99804.89;103504;1251;108808;-71
2023/03/22 10:42:59;;;;;;;21.20;15.00;;;;;;;10.58;64.97;99796.09;103686;1250;138725;-70
2023/03/22 10:45:33;;;;;;;20.70;15.70;;;;;;;10.61;65.01;99802.61;103702;1251;111425;-71
2023/03/22 10:48:21;;;;;;;24.10;16.00;;;;;;;10.66;64.91;99798.24;103285;1250;138683;-74
2023/03/22 10:51:00;;;;;;;21.60;15.60;;;;;;;10.74;64.87;99799.99;103483;1251;97937;-68
2023/03/22 10:53:37;;;;;;;22.60;15.90;;;;;;;10.80;65.01;99797.48;103423;1253;138733;-68
2023/03/22 10:56:06;;;;;;;21.60;15.30;;;;;;;10.88;64.76;99796.81;103661;1251;97768;-69
2023/03/22 10:58:34;;;;;;;23.90;16.10;;;;;;;10.89;64.68;99788.25;104059;1251;111233;-70
2023/03/22 11:01:08;;;;;;;22.30;15.60;;;;;;;10.91;64.77;99786.95;103395;1251;139464;-71
2023/03/22 11:03:41;;;;;;;25.00;15.40;;;;;;;10.91;64.69;99784.18;103744;1251;97773;-69
2023/03/22 11:06:13;;;;;;;24.30;15.80;;;;;;;10.88;64.61;99777.16;103784;1250;138464;-69
2023/03/22 11:08:48;;;;;;;20.90;14.90;;;;;;;10.87;64.67;99777.38;103543;1250;97903;-71
2023/03/22 11:11:23;;;;;;;19.30;14.10;;;;;;;10.85;64.91;99776.59;103560;1253;111681;-70
2023/03/22 11:13:59;;;;;;;22.20;15.30;;;;;;;10.83;64.86;99773.35;103494;1253;108022;-70
2023/03/22 11:16:55;;;;;;;23.10;15.10;;;;;;;10.84;64.95;99771.23;103487;1248;97848;-70
2023/03/22 11:19:29;;;;;;;21.20;14.10;;;;;;;10.87;65.04;99768.50;103445;1250;138688;-68
2023/03/22 11:21:58;;;;;;;21.80;13.40;;;;;;;10.93;64.99;99768.63;103507;1254;97793;-69
2023/03/22 11:24:28;;;;;;;23.30;14.70;;;;;;;10.97;64.89;99767.79;103451;1251;138974;-71
2023/03/22 11:27:07;;;;;;;20.90;13.40;;;;;;;10.99;64.85;99767.88;103537;1251;109407;-70
2023/03/22 11:29:44;;;;;;;19.70;13.70;;;;;;;10.99;64.57;99767.70;104051;1253;138858;-69
2023/03/22 11:32:26;;;;;;;18.80;13.90;;;;;;;10.99;64.50;99771.17;103594;1251;106798;-68
2023/03/22 11:35:02;;;;;;;19.00;13.30;;;;;;;10.97;64.18;99769.36;105025;1249;95972;-69
2023/03/22 11:37:29;;;;;;;17.20;12.90;;;;;;;10.97;64.38;99759.95;103720;1253;139144;-70
2023/03/22 11:40:03;;;;;;;20.50;14.10;;;;;;;11.00;64.54;99763.29;103533;1249;109395;-69
2023/03/22 11:42:33;;;;;;;22.10;14.30;;;;;;;11.03;64.38;99765.92;103647;1250;138651;-70